Terminal Aerodrome Forecast
Issued by NWS

Home | Current Version | Previous Version | Text Only | Print | Product List | Glossary On
Versions: 1 2 3 4 5 6 7 8 9 10 11 12 13 14 15 16 17 18 19 20 21 22 23 24 25
000
FTPA31 PHFO 292300
TAFMKK
TAF
PHMK 292320Z 3000/3024 04014G23KT P6SM FEW035
     FM300500 04009G15KT P6SM SKC
     FM301300 04007KT P6SM SKC
     FM302000 04013G21KT P6SM FEW035=

USA.gov is the U.S. government's official web portal to all federal, state and local government web resources and services.